Time;durP1;ratioP1;P1;durP2;ratioP2;P2;SDS_P1;SDS_P2;PMS_P1;PMS_P2;Temp;Humidity;BMP_temperature;BMP_pressure;BME280_temperature;BME280_humidity;BME280_pressure;Samples;Min_cycle;Max_cycle;Signal;HPM_P1;HPM_P2
2023/09/18 00:08:44;;;;;;;2.25;1.02;;;;;;;;;;20828990;28;20230;-70
2023/09/18 00:18:45;;;;;;;4.88;1.20;;;;;;;;;;20861362;22;20297;-68
2023/09/18 00:28:48;;;;;;;2.97;1.30;;;;;;;;;;20867141;28;20290;-68
2023/09/18 00:38:49;;;;;;;2.33;1.00;;;;;;;;;;20849303;28;20225;-67
2023/09/18 00:48:51;;;;;;;1.83;1.00;;;;;;;;;;20849223;28;20732;-68
2023/09/18 00:58:54;;;;;;;3.50;1.20;;;;;;;;;;20898308;28;20283;-68
2023/09/18 01:08:56;;;;;;;2.95;1.05;;;;;;;;;;20801447;28;20257;-68
2023/09/18 01:18:57;;;;;;;3.58;1.15;;;;;;;;;;20877946;28;20282;-68
2023/09/18 01:29:00;;;;;;;2.58;1.00;;;;;;;;;;20882443;28;20285;-68
2023/09/18 01:39:03;;;;;;;2.08;0.85;;;;;;;;;;20895582;28;20281;-68
2023/09/18 01:49:05;;;;;;;1.60;0.98;;;;;;;;;;20865798;28;20226;-67
2023/09/18 01:59:06;;;;;;;1.80;1.08;;;;;;;;;;20871494;28;20236;-67
2023/09/18 02:09:08;;;;;;;1.30;0.88;;;;;;;;;;20828853;28;20228;-67
2023/09/18 02:19:11;;;;;;;1.40;0.85;;;;;;;;;;20872672;28;20223;-68
2023/09/18 02:29:14;;;;;;;1.80;1.10;;;;;;;;;;20895156;28;20283;-68
2023/09/18 02:39:16;;;;;;;1.77;1.20;;;;;;;;;;20907764;28;20219;-68
2023/09/18 02:49:18;;;;;;;2.85;0.95;;;;;;;;;;20857406;28;20226;-68
2023/09/18 02:59:20;;;;;;;4.82;0.88;;;;;;;;;;20832355;28;20218;-67
2023/09/18 03:09:23;;;;;;;1.67;0.85;;;;;;;;;;20838593;28;20701;-67
2023/09/18 03:19:26;;;;;;;2.08;1.15;;;;;;;;;;20830222;28;20259;-67
2023/09/18 03:29:30;;;;;;;2.67;0.93;;;;;;;;;;20829604;28;20236;-67
2023/09/18 03:39:32;;;;;;;2.97;0.80;;;;;;;;;;20801164;28;20279;-67
2023/09/18 03:49:34;;;;;;;5.80;1.08;;;;;;;;;;20783227;28;20765;-65
2023/09/18 03:59:36;;;;;;;5.05;1.30;;;;;;;;;;20825700;28;20225;-65
2023/09/18 04:09:39;;;;;;;4.32;1.45;;;;;;;;;;20840452;28;20777;-66
2023/09/18 04:19:44;;;;;;;3.17;1.10;;;22.20;99.90;;;;;;20817742;28;20279;-66
2023/09/18 04:29:46;;;;;;;3.50;0.90;;;;;;;;;;20835293;28;20695;-66
2023/09/18 04:39:48;;;;;;;2.03;1.10;;;;;;;;;;20809457;28;20255;-66
2023/09/18 04:49:50;;;;;;;3.17;1.05;;;;;;;;;;20874374;28;20252;-67
2023/09/18 04:59:53;;;;;;;3.08;1.30;;;;;;;;;;20847922;28;20209;-66
2023/09/18 05:09:55;;;;;;;2.13;0.98;;;;;;;;;;20822212;28;20232;-66
2023/09/18 05:19:56;;;;;;;2.20;1.10;;;;;;;;;;20841572;28;20690;-66
2023/09/18 05:29:58;;;;;;;4.63;1.23;;;;;;;;;;20824404;28;20657;-66
2023/09/18 05:40:00;;;;;;;5.18;1.40;;;;;;;;;;20831981;28;20213;-66
2023/09/18 05:50:06;;;;;;;2.85;0.90;;;21.70;99.90;;;;;;20879016;28;20700;-65
2023/09/18 06:00:12;;;;;;;2.88;0.95;;;21.80;99.90;;;;;;20877850;28;20693;-66
2023/09/18 06:10:16;;;;;;;3.15;1.75;;;;;;;;;;20837037;28;20271;-65
2023/09/18 06:20:18;;;;;;;1.23;0.80;;;;;;;;;;20788220;28;20218;-66
2023/09/18 06:30:20;;;;;;;2.15;0.80;;;;;;;;;;20779159;28;20288;-66
2023/09/18 06:40:22;;;;;;;2.47;0.60;;;;;;;;;;20806754;28;20210;-65
2023/09/18 06:50:24;;;;;;;1.23;0.82;;;;;;;;;;20836170;22;20234;-78
2023/09/18 07:00:26;;;;;;;2.88;0.50;;;;;;;;;;20858147;28;20234;-76
2023/09/18 07:10:27;;;;;;;1.23;0.57;;;;;;;;;;20858049;28;20209;-80
2023/09/18 07:20:30;;;;;;;1.33;0.60;;;;;;;;;;20876391;28;20622;-78
2023/09/18 07:30:31;;;;;;;2.40;0.60;;;;;;;;;;20910224;28;20248;-78
2023/09/18 07:40:33;;;;;;;2.08;0.70;;;;;;;;;;20819623;28;20218;-76
2023/09/18 07:50:36;;;;;;;1.83;0.77;;;21.70;99.90;;;;;;20825402;28;20236;-79
2023/09/18 08:00:38;;;;;;;1.07;0.63;;;;;;;;;;20823581;28;20266;-77
2023/09/18 08:10:41;;;;;;;3.55;0.60;;;;;;;;;;20889442;28;20235;-77
2023/09/18 08:20:43;;;;;;;3.17;0.65;;;21.50;99.90;;;;;;20838247;28;20275;-77
2023/09/18 08:30:47;;;;;;;1.90;0.63;;;;;;;;;;20839025;28;20561;-77
2023/09/18 08:40:49;;;;;;;1.98;0.50;;;;;;;;;;20879646;28;20242;-77
2023/09/18 08:50:51;;;;;;;2.17;0.70;;;;;;;;;;20808367;28;20259;-78
2023/09/18 09:00:53;;;;;;;1.10;0.50;;;;;;;;;;20816441;28;20265;-77
2023/09/18 09:10:57;;;;;;;1.02;0.60;;;;;;;;;;20807467;28;20702;-76
2023/09/18 09:21:01;;;;;;;1.98;0.55;;;;;;;;;;20894550;28;20232;-78
2023/09/18 09:31:03;;;;;;;2.63;0.60;;;;;;;;;;20848079;28;20239;-78
2023/09/18 09:41:06;;;;;;;2.38;0.50;;;;;;;;;;20874020;28;20228;-77
2023/09/18 09:51:09;;;;;;;1.33;0.55;;;;;;;;;;20827428;28;20234;-77
2023/09/18 10:01:17;;;;;;;0.90;0.50;;;22.00;99.90;;;;;;20868034;28;20289;-78
2023/09/18 10:11:21;;;;;;;0.77;0.40;;;;;;;;;;20878134;28;20250;-78
2023/09/18 10:21:38;;;;;;;1.30;0.50;;;22.20;99.90;;;;;;20812649;28;20218;-78
2023/09/18 10:31:42;;;;;;;2.05;0.40;;;;;;;;;;20840634;28;20220;-78
2023/09/18 10:41:45;;;;;;;2.05;0.60;;;;;;;;;;20815057;28;20593;-78
2023/09/18 10:51:47;;;;;;;0.85;0.52;;;22.80;99.90;;;;;;20853923;28;20229;-77
2023/09/18 11:01:49;;;;;;;2.63;0.50;;;23.00;99.90;;;;;;20820950;28;20233;-78
2023/09/18 11:11:57;;;;;;;1.92;0.68;;;;;;;;;;20838686;28;20270;-79
2023/09/18 11:22:10;;;;;;;1.83;0.70;;;23.00;99.90;;;;;;20838549;28;20214;-81
2023/09/18 11:32:12;;;;;;;3.80;0.75;;;;;;;;;;20804477;28;20671;-78
2023/09/18 11:42:18;;;;;;;0.95;0.50;;;;;;;;;;20819031;28;20769;-79
2023/09/18 11:52:21;;;;;;;0.77;0.50;;;24.30;99.90;;;;;;20819848;28;20228;-78
2023/09/18 12:02:35;;;;;;;1.13;0.60;;;;;;;;;;20844271;28;20210;-78
2023/09/18 12:12:37;;;;;;;0.80;0.50;;;;;;;;;;20838099;28;20215;-79
2023/09/18 12:22:38;;;;;;;1.17;0.60;;;;;;;;;;20838762;28;20222;-78
2023/09/18 12:32:40;;;;;;;2.00;0.40;;;;;;;;;;20853216;28;20215;-78
2023/09/18 12:42:42;;;;;;;1.95;0.50;;;;;;;;;;20806176;28;20230;-79
2023/09/18 12:52:44;;;;;;;2.10;0.52;;;;;;;;;;20923306;23;20301;-66
2023/09/18 13:02:55;;;;;;;1.45;0.40;;;;;;;;;;20817688;28;20228;-66
2023/09/18 13:13:05;;;;;;;1.40;0.50;;;;;;;;;;20809958;28;20211;-66
2023/09/18 13:23:10;;;;;;;1.10;0.40;;;;;;;;;;20842794;28;20762;-66
2023/09/18 13:33:29;;;;;;;1.20;0.63;;;;;;;;;;20867395;28;20279;-65
2023/09/18 13:43:45;;;;;;;1.65;0.60;;;24.70;99.90;;;;;;20848449;28;20721;-66
2023/09/18 13:54:00;;;;;;;1.30;0.63;;;24.50;99.90;;;;;;20823657;28;20221;-66
2023/09/18 14:04:22;;;;;;;0.70;0.57;;;24.60;99.90;;;;;;20876569;28;20236;-66
2023/09/18 14:14:29;;;;;;;0.90;0.50;;;25.00;99.90;;;;;;20843236;28;20219;-66
2023/09/18 14:25:05;;;;;;;1.23;0.60;;;25.30;99.90;;;;;;20850635;28;20577;-66
2023/09/18 14:35:17;;;;;;;1.13;0.47;;;;;;;;;;20850942;28;20248;-67
2023/09/18 14:45:27;;;;;;;1.40;0.50;;;;;;;;;;20821427;28;20288;-66
2023/09/18 14:55:35;;;;;;;0.80;0.40;;;;;;;;;;20858708;28;20244;-68
2023/09/18 15:05:38;;;;;;;1.85;0.60;;;25.20;99.90;;;;;;20850643;28;20219;-67
2023/09/18 15:15:53;;;;;;;0.80;0.40;;;;;;;;;;20888903;28;20217;-66
2023/09/18 15:26:02;;;;;;;1.13;0.60;;;;;;;;;;20868021;28;20224;-66
2023/09/18 15:36:09;;;;;;;1.98;0.50;;;;;;;;;;20791167;28;20267;-66
2023/09/18 15:46:24;;;;;;;0.73;0.30;;;;;;;;;;20822720;28;20230;-66
2023/09/18 15:56:56;;;;;;;1.02;0.45;;;24.50;99.90;;;;;;20852031;28;20238;-66
2023/09/18 16:07:11;;;;;;;1.27;0.70;;;;;;;;;;20847621;28;20731;-66
2023/09/18 16:17:36;;;;;;;0.93;0.50;;;;;;;;;;20833188;28;21131;-66
2023/09/18 16:27:45;;;;;;;1.05;0.45;;;;;;;;;;20817276;28;20218;-66
2023/09/18 16:37:56;;;;;;;1.85;0.50;;;;;;;;;;20867145;28;20214;-66
2023/09/18 16:48:04;;;;;;;1.00;0.40;;;;;;;;;;20806389;28;20310;-66
2023/09/18 16:58:14;;;;;;;1.52;0.55;;;23.90;99.90;;;;;;20842012;28;20604;-66
2023/09/18 17:08:20;;;;;;;1.10;0.60;;;24.00;99.90;;;;;;20848070;28;20752;-66
2023/09/18 17:18:25;;;;;;;0.77;0.32;;;;;;;;;;20833166;28;20215;-65
2023/09/18 17:28:46;;;;;;;4.35;1.00;;;22.70;99.90;;;;;;20806889;28;20269;-68
2023/09/18 17:39:19;;;;;;;1.73;0.52;;;;;;;;;;20808594;28;20224;-68
2023/09/18 17:49:39;;;;;;;1.05;0.45;;;;;;;;;;20830216;28;20303;-68
2023/09/18 17:59:52;;;;;;;2.20;0.40;;;21.90;99.90;;;;;;20862214;28;20279;-70
2023/09/18 18:10:00;;;;;;;1.35;0.40;;;;;;;;;;20819256;28;20313;-69
2023/09/18 18:20:25;;;;;;;0.20;0.20;;;;;;;;;;20849478;28;20226;-69
2023/09/18 18:30:34;;;;;;;1.65;0.30;;;;;;;;;;20861406;28;20232;-69
2023/09/18 18:40:46;;;;;;;0.47;0.28;;;21.30;99.90;;;;;;20873498;28;20216;-69
2023/09/18 19:01:20;;;;;;;0.30;0.30;;;;;;;;;;20925533;28;20302;-67
2023/09/18 19:11:22;;;;;;;0.47;0.30;;;;;;;;;;21027580;22;20785;-69
2023/09/18 19:21:24;;;;;;;0.83;0.40;;;;;;;;;;20893383;28;20226;-69
2023/09/18 19:31:26;;;;;;;1.05;0.50;;;;;;;;;;20906587;28;20214;-69
2023/09/18 19:41:28;;;;;;;0.40;0.30;;;;;;;;;;20895347;28;20250;-69
2023/09/18 19:51:32;;;;;;;0.82;0.45;;;;;;;;;;20927828;28;20229;-69
2023/09/18 20:01:34;;;;;;;2.10;0.30;;;;;;;;;;20945938;28;20226;-69
2023/09/18 20:11:36;;;;;;;1.35;0.40;;;;;;;;;;20901659;28;20785;-69
2023/09/18 20:21:39;;;;;;;0.63;0.33;;;;;;;;;;20929324;28;20321;-69
2023/09/18 20:31:41;;;;;;;0.83;0.63;;;;;;;;;;20927885;28;20212;-69
2023/09/18 20:41:46;;;;;;;1.00;0.40;;;;;;;;;;20925290;28;20272;-69
2023/09/18 20:51:47;;;;;;;2.10;0.63;;;;;;;;;;20917508;28;20730;-68
2023/09/18 21:01:49;;;;;;;0.70;0.50;;;;;;;;;;20931543;28;20232;-68
2023/09/18 21:11:52;;;;;;;0.73;0.40;;;;;;;;;;20931768;28;20243;-68
2023/09/18 21:21:54;;;;;;;0.50;0.20;;;;;;;;;;20916318;28;20218;-68
2023/09/18 21:31:57;;;;;;;0.60;0.30;;;;;;;;;;20942154;28;20309;-68
2023/09/18 21:41:59;;;;;;;1.53;0.30;;;;;;;;;;20946056;28;20236;-68
2023/09/18 21:52:01;;;;;;;0.70;0.30;;;;;;;;;;20935961;28;20247;-69
2023/09/18 22:02:04;;;;;;;0.50;0.30;;;;;;;;;;20944328;28;20295;-68
2023/09/18 22:12:06;;;;;;;0.77;0.30;;;;;;;;;;20943275;28;20305;-68
2023/09/18 22:22:10;;;;;;;0.43;0.30;;;;;;;;;;20927257;28;20231;-68
2023/09/18 22:32:12;;;;;;;1.13;0.47;;;;;;;;;;20942191;28;20228;-68
2023/09/18 22:42:14;;;;;;;0.73;0.40;;;;;;;;;;20956613;28;20235;-68
2023/09/18 22:52:36;;;;;;;0.50;0.30;;;;;;;;;;20931634;28;20224;-68
2023/09/18 23:02:42;;;;;;;0.20;0.20;;;;;;;;;;20956209;28;20234;-68
2023/09/18 23:12:45;;;;;;;0.70;0.30;;;;;;;;;;20939768;28;20232;-69
2023/09/18 23:22:47;;;;;;;0.33;0.30;;;;;;;;;;20922157;28;20576;-68
2023/09/18 23:32:53;;;;;;;0.23;0.20;;;;;;;;;;20953403;28;20210;-68
2023/09/18 23:42:55;;;;;;;0.50;0.30;;;;;;;;;;20935923;28;20273;-68
2023/09/18 23:53:00;;;;;;;0.87;0.40;;;;;;;;;;20900773;28;20753;-68
